Time;durP1;ratioP1;P1;durP2;ratioP2;P2;SDS_P1;SDS_P2;PMS_P1;PMS_P2;Temp;Humidity;BMP_temperature;BMP_pressure;BME280_temperature;BME280_humidity;BME280_pressure;Samples;Min_cycle;Max_cycle;Signal;HPM_P1;HPM_P2
2022/04/16 00:00:21;;;;;;;51.92;27.50;;;;;;;-149.78;100.00;50225.03;4884351;29;20618;-70
2022/04/16 00:02:47;;;;;;;53.03;27.20;;;;;;;-149.78;100.00;50209.38;4890893;29;20042;-70
2022/04/16 00:05:14;;;;;;;53.28;27.38;;;;;;;-149.78;100.00;50232.84;4889219;29;20064;-70
2022/04/16 00:07:40;;;;;;;58.08;28.35;;;;;;;-149.78;100.00;50185.91;4891382;29;20173;-70
2022/04/16 00:10:07;;;;;;;55.17;27.70;;;;;;;-149.78;100.00;50236.75;4889034;29;20092;-70
2022/04/16 00:12:33;;;;;;;54.03;27.45;;;;;;;-149.78;100.00;50178.09;4890629;29;20044;-70
2022/04/16 00:14:59;;;;;;;54.58;27.98;;;;;;;-149.78;100.00;50209.38;4889067;29;20459;-70
2022/04/16 00:17:25;;;;;;;57.92;28.23;;;;;;;-149.78;100.00;50228.94;4890502;29;20039;-70
2022/04/16 00:19:51;;;;;;;55.97;27.25;;;;;;;-149.78;100.00;50266.09;4890041;29;20037;-70
2022/04/16 00:22:18;;;;;;;57.80;27.23;;;;;;;-149.78;100.00;50228.94;4889769;29;20036;-70
2022/04/16 00:24:46;;;;;;;50.78;26.23;;;;;;;-149.78;100.00;50213.28;4890631;29;20540;-70
2022/04/16 00:27:12;;;;;;;55.33;26.40;;;;;;;-149.78;100.00;50217.19;4888626;29;20391;-70
2022/04/16 00:29:38;;;;;;;56.15;27.27;;;;;;;-149.78;100.00;50189.81;4890523;29;20041;-70
2022/04/16 00:32:05;;;;;;;58.63;27.08;;;;;;;-149.78;100.00;50256.31;4888739;29;20142;-70
2022/04/16 00:34:32;;;;;;;52.47;26.15;;;;;;;-149.78;100.00;50232.84;4873071;29;20504;-70
2022/04/16 00:36:59;;;;;;;59.05;26.92;;;;;;;-149.78;100.00;50225.03;4890172;29;20051;-70
2022/04/16 00:39:25;;;;;;;55.88;25.17;;;;;;;-149.78;100.00;50209.38;4888671;29;20036;-70
2022/04/16 00:41:51;;;;;;;52.85;25.75;;;;;;;-149.78;100.00;50225.03;4889722;29;20055;-70
2022/04/16 00:44:21;;;;;;;51.88;24.60;;;;;;;-149.78;100.00;50217.19;4889952;29;20047;-70
2022/04/16 00:46:50;;;;;;;58.10;26.35;;;;;;;-149.78;100.00;50238.72;4888917;29;20035;-69
2022/04/16 00:49:16;;;;;;;54.40;26.30;;;;;;;-149.78;100.00;50209.38;4888231;29;20531;-69
2022/04/16 00:51:45;;;;;;;52.17;25.27;;;;;;;-149.78;100.00;50185.91;4890623;29;20047;-70
2022/04/16 00:54:11;;;;;;;45.78;23.33;;;;;;;-149.78;100.00;50225.03;4912758;29;20048;-70
2022/04/16 00:56:38;;;;;;;50.97;24.48;;;;;;;-149.78;100.00;50221.13;4902036;29;20044;-69
2022/04/16 00:59:04;;;;;;;50.05;24.25;;;;;;;-149.78;100.00;50240.66;4907987;29;20388;-70
2022/04/16 01:01:30;;;;;;;51.58;24.25;;;;;;;-149.78;100.00;50244.59;4903146;29;20123;-70
2022/04/16 01:03:57;;;;;;;51.65;23.80;;;;;;;-149.78;100.00;50244.59;4912571;29;20123;-69
2022/04/16 01:06:23;;;;;;;46.65;23.52;;;;;;;-149.78;100.00;50225.03;4893444;29;20115;-69
2022/04/16 01:08:48;;;;;;;51.83;23.25;;;;;;;-149.78;100.00;50213.28;4915438;29;20040;-69
2022/04/16 01:11:15;;;;;;;50.58;24.38;;;;;;;-149.78;100.00;50254.34;4904651;29;20040;-69
2022/04/16 01:13:46;;;;;;;46.45;23.48;;;;;;;-149.78;100.00;50240.66;4889031;29;20032;-69
2022/04/16 01:16:11;;;;;;;45.60;23.88;;;;;;;-149.78;100.00;50228.94;4887865;29;20389;-69
2022/04/16 01:18:45;;;;;;;45.47;22.60;;;;;;;-149.78;100.00;50252.41;4890182;29;20048;-69
2022/04/16 01:21:11;;;;;;;48.97;23.42;;;;;;;-149.78;100.00;50213.28;4889479;29;21164;-69
2022/04/16 01:23:37;;;;;;;46.20;23.42;;;;;;;-149.78;100.00;50236.75;4888269;29;20041;-69
2022/04/16 01:26:02;;;;;;;51.35;23.58;;;;;;;-149.78;100.00;50234.81;4888821;29;20096;-69
2022/04/16 01:28:28;;;;;;;44.72;22.00;;;;;;;-149.78;100.00;50242.63;4886395;29;20175;-69
2022/04/16 01:30:53;;;;;;;50.22;24.27;;;;;;;-149.78;100.00;50275.88;4887441;29;20041;-69
2022/04/16 01:33:19;;;;;;;50.55;24.13;;;;;;;-149.78;100.00;50270.00;4888798;29;20172;-69
2022/04/16 01:35:45;;;;;;;47.40;23.35;;;;;;;-149.78;100.00;50189.81;4887500;29;20050;-69
2022/04/16 01:38:10;;;;;;;49.83;23.48;;;;;;;-149.78;100.00;50244.59;4889804;29;20036;-69
2022/04/16 01:40:36;;;;;;;51.40;23.73;;;;;;;-149.78;100.00;50246.53;4889058;29;20125;-69
2022/04/16 01:43:02;;;;;;;49.35;23.63;;;;;;;-149.78;100.00;50283.69;4888014;29;20044;-69
2022/04/16 01:45:27;;;;;;;48.67;23.95;;;;;;;-149.78;100.00;50215.25;4889546;29;20056;-69
2022/04/16 01:47:53;;;;;;;53.10;24.20;;;;;;;-149.78;100.00;50254.34;4888989;29;20042;-69
2022/04/16 01:50:19;;;;;;;49.95;24.95;;;;;;;-149.78;100.00;50228.94;4889103;29;20029;-69
2022/04/16 01:52:46;;;;;;;51.75;25.45;;;;;;;-149.78;100.00;50201.56;4886659;29;20380;-69
2022/04/16 01:55:14;;;;;;;52.90;23.67;;;;;;;-149.78;100.00;50201.56;4885194;29;20040;-69
2022/04/16 01:57:41;;;;;;;52.05;25.15;;;;;;;-149.78;100.00;50213.28;4887233;29;20028;-69
2022/04/16 02:00:08;;;;;;;52.00;25.63;;;;;;;-149.78;100.00;50250.44;4885603;29;20052;-69
2022/04/16 02:02:36;;;;;;;53.03;26.00;;;;;;;-149.78;100.00;50228.94;4886263;29;20040;-69
2022/04/16 02:05:07;;;;;;;;;;;;;;;-149.78;100.00;50256.31;4886652;29;20489;-69
2022/04/16 02:07:33;;;;;;;57.97;25.63;;;;;;;-149.78;100.00;50256.31;4885576;29;19927;-69
2022/04/16 02:10:00;;;;;;;56.13;26.48;;;;;;;-149.78;100.00;50225.03;4887600;29;20032;-70
2022/04/16 02:12:26;;;;;;;57.15;26.65;;;;;;;-149.78;100.00;50238.72;4888781;29;20107;-69
2022/04/16 02:14:52;;;;;;;54.03;26.48;;;;;;;-149.78;100.00;50246.53;4887413;29;20048;-69
2022/04/16 02:17:19;;;;;;;52.88;25.88;;;;;;;-149.78;100.00;50203.50;4886921;29;20804;-69
2022/04/16 02:19:47;;;;;;;54.80;26.75;;;;;;;-149.78;100.00;50215.25;4887702;29;20052;-69
2022/04/16 02:22:13;;;;;;;54.22;26.70;;;;;;;-149.78;100.00;50273.91;4886914;29;20036;-69
2022/04/16 02:24:39;;;;;;;56.30;27.65;;;;;;;-149.78;100.00;50246.53;4888440;29;20060;-69
2022/04/16 02:27:05;;;;;;;58.65;26.77;;;;;;;-149.78;100.00;50248.50;4886911;29;20480;-69
2022/04/16 02:29:31;;;;;;;54.00;25.90;;;;;;;-149.78;100.00;50258.28;4888951;29;20036;-70
2022/04/16 02:31:57;;;;;;;58.88;27.67;;;;;;;-149.78;100.00;50232.84;4886431;29;20047;-69
2022/04/16 02:34:23;;;;;;;55.75;26.95;;;;;;;-149.78;100.00;50270.00;4888022;29;20053;-69
2022/04/16 02:36:48;;;;;;;61.45;26.73;;;;;;;-149.78;100.00;50266.09;4888026;29;20128;-69
2022/04/16 02:39:15;;;;;;;61.75;28.05;;;;;;;-149.78;100.00;50232.84;4887171;29;20037;-69
2022/04/16 02:41:41;;;;;;;59.08;28.23;;;;;;;-149.78;100.00;50260.22;4888128;29;20037;-69
2022/04/16 02:47:04;;;;;;;60.42;27.92;;;;;;;-149.78;100.00;50225.03;4888504;29;20044;-69
2022/04/16 02:47:08;;;;;;;56.60;27.35;;;;;;;-149.78;100.00;50264.13;4887417;29;20047;-69
2022/04/16 02:49:36;;;;;;;61.65;27.35;;;;;;;-149.78;100.00;50266.09;4886234;29;20048;-69
2022/04/16 02:52:02;;;;;;;62.25;27.40;;;;;;;-149.78;100.00;50248.50;4887300;29;20119;-69
2022/04/16 02:54:28;;;;;;;56.85;27.95;;;;;;;-149.78;100.00;50236.75;4888162;29;20037;-69
2022/04/16 02:56:55;;;;;;;61.83;29.42;;;;;;;-149.78;100.00;50240.66;4888859;29;20063;-70
2022/04/16 02:59:21;;;;;;;60.65;28.60;;;;;;;-149.78;100.00;50256.31;4887237;29;20039;-69
2022/04/16 03:01:47;;;;;;;61.95;30.20;;;;;;;-149.78;100.00;50248.50;4887923;29;20024;-70
2022/04/16 03:04:12;;;;;;;67.75;29.88;;;;;;;-149.78;100.00;50252.41;4887673;29;20521;-70
2022/04/16 03:06:38;;;;;;;63.95;29.80;;;;;;;-149.78;100.00;50244.59;4888085;29;20039;-69
2022/04/16 03:09:03;;;;;;;69.00;31.98;;;;;;;-149.78;100.00;50230.88;4887869;29;20443;-69
2022/04/16 03:11:29;;;;;;;63.08;30.30;;;;;;;-149.78;100.00;50279.78;4886048;29;20448;-69
2022/04/16 03:13:55;;;;;;;73.45;33.15;;;;;;;-149.78;100.00;50240.66;4886452;29;20115;-69
2022/04/16 03:19:05;;;;;;;68.50;32.50;;;;;;;-149.78;100.00;50291.50;4887505;29;20029;-69
2022/04/16 03:21:30;;;;;;;65.50;30.35;;;;;;;-149.78;100.00;50271.97;4886960;29;20032;-69
2022/04/16 03:23:56;;;;;;;69.20;31.60;;;;;;;-149.78;100.00;50260.22;4884973;29;20509;-69
2022/04/16 03:26:23;;;;;;;66.88;30.80;;;;;;;-149.78;100.00;50248.50;4886482;29;20433;-70
2022/04/16 03:28:50;;;;;;;68.22;32.95;;;;;;;-149.78;100.00;50223.06;4886918;29;20033;-69
2022/04/16 03:31:16;;;;;;;74.53;33.20;;;;;;;-149.78;100.00;50228.94;4891307;29;20048;-69
2022/04/16 03:33:42;;;;;;;72.38;33.00;;;;;;;-149.78;100.00;50303.25;4891132;29;20791;-69
2022/04/16 03:36:08;;;;;;;83.15;34.85;;;;;;;-149.78;100.00;50270.00;4889716;29;20107;-69
2022/04/16 03:38:33;;;;;;;75.53;34.53;;;;;;;-149.78;100.00;50244.59;4890449;29;20180;-69
2022/04/16 03:41:01;;;;;;;71.03;33.47;;;;;;;-149.78;100.00;50268.03;4890223;29;20040;-70
2022/04/16 03:43:29;;;;;;;72.60;34.75;;;;;;;-149.78;100.00;50275.88;4889208;29;20400;-70
2022/04/16 03:45:55;;;;;;;64.07;31.73;;;;;;;-149.78;100.00;50260.22;4891033;29;20107;-69
2022/04/16 03:48:21;;;;;;;66.32;31.38;;;;;;;-149.78;100.00;50279.78;4889776;29;20585;-69
2022/04/16 03:50:46;;;;;;;62.53;32.08;;;;;;;-149.78;100.00;50307.16;4888972;29;20115;-70
2022/04/16 03:53:12;;;;;;;66.53;31.95;;;;;;;-149.78;100.00;50309.13;4901734;29;20376;-69
2022/04/16 04:01:07;;;;;;;77.85;34.28;;;;;;;-149.78;100.00;50248.50;4908335;29;20032;-68
2022/04/16 04:03:33;;;;;;;85.30;36.80;;;;;;;-149.78;100.00;50260.22;4911957;29;20621;-69
2022/04/16 04:06:00;;;;;;;83.97;36.83;;;;;;;-149.78;100.00;50275.88;4901195;29;20465;-68
2022/04/16 04:08:26;;;;;;;77.32;36.72;;;;;;;-149.78;100.00;50281.75;4913766;29;20492;-68
2022/04/16 04:10:51;;;;;;;81.75;38.08;;;;;;;-149.78;100.00;50268.03;4906356;29;20040;-69
2022/04/16 04:13:18;;;;;;;82.13;38.13;;;;;;;-149.78;100.00;50268.03;4898623;29;20100;-69
2022/04/16 04:15:44;;;;;;;84.32;36.70;;;;;;;-149.78;100.00;50256.31;4890765;29;20040;-69
2022/04/16 04:18:10;;;;;;;84.32;38.55;;;;;;;-149.78;100.00;50250.44;4890384;29;20063;-69
2022/04/16 04:20:36;;;;;;;86.40;38.25;;;;;;;-149.78;100.00;50291.50;4891060;29;20072;-69
2022/04/16 04:23:05;;;;;;;87.93;38.65;;;;;;;-149.78;100.00;50291.50;4889868;29;20040;-69
2022/04/16 04:25:31;;;;;;;86.43;39.45;;;;;;;-149.78;100.00;50275.88;4889368;29;20033;-69
2022/04/16 04:27:57;;;;;;;95.57;40.08;;;;;;;-149.78;100.00;50230.88;4890993;29;20037;-69
2022/04/16 04:30:23;;;;;;;85.78;38.72;;;;;;;-149.78;100.00;50260.22;4873812;29;20139;-69
2022/04/16 04:32:48;;;;;;;88.82;39.00;;;;;;;-149.78;100.00;50256.31;4889783;29;20195;-69
2022/04/16 04:35:15;;;;;;;91.93;40.90;;;;;;;-149.78;100.00;50248.50;4873482;29;20077;-69
2022/04/16 04:37:41;;;;;;;84.65;38.90;;;;;;;-149.78;100.00;50287.59;4889867;29;20567;-69
2022/04/16 04:40:07;;;;;;;89.05;38.92;;;;;;;-149.78;100.00;50303.25;4889752;29;20696;-69
2022/04/16 04:42:34;;;;;;;87.47;40.05;;;;;;;-149.78;100.00;50264.13;4873235;29;20032;-69
2022/04/16 04:45:10;;;;;;;93.88;41.42;;;;;;;-149.78;100.00;50256.31;4890064;29;20062;-69
2022/04/16 04:47:36;;;;;;;85.57;39.05;;;;;;;-149.78;100.00;50250.44;4890368;29;20039;-69
2022/04/16 04:50:02;;;;;;;89.45;39.53;;;;;;;-149.78;100.00;50266.09;4889520;29;20041;-69
2022/04/16 04:52:29;;;;;;;87.03;39.63;;;;;;;-149.78;100.00;50275.88;4888997;29;20039;-69
2022/04/16 04:54:56;;;;;;;84.65;40.38;;;;;;;-149.78;100.00;50268.03;4889816;29;20047;-70
2022/04/16 04:57:22;;;;;;;87.18;37.42;;;;;;;-149.78;100.00;50279.78;4888629;29;21340;-69
2022/04/16 04:59:49;;;;;;;85.05;39.55;;;;;;;-149.78;100.00;50254.34;4889899;29;20036;-69
2022/04/16 05:02:14;;;;;;;81.03;38.15;;;;;;;-149.78;100.00;50271.97;4888974;29;20050;-69
2022/04/16 05:04:41;;;;;;;93.50;39.85;;;;;;;-149.78;100.00;50271.97;4889462;29;20376;-69
2022/04/16 05:07:08;;;;;;;85.88;39.80;;;;;;;-149.78;100.00;50303.25;4888802;29;20036;-69
2022/04/16 05:09:34;;;;;;;81.85;37.10;;;;;;;-149.78;100.00;50268.03;4888009;29;20052;-69
2022/04/16 05:12:00;;;;;;;93.85;40.45;;;;;;;-149.78;100.00;50248.50;4889335;29;20078;-69
2022/04/16 05:14:25;;;;;;;91.47;39.05;;;;;;;-149.78;100.00;50268.03;4887781;29;20052;-69
2022/04/16 05:16:53;;;;;;;91.57;39.72;;;;;;;-149.78;100.00;50283.69;4888877;29;20036;-69
2022/04/16 05:19:19;;;;;;;89.78;41.53;;;;;;;-149.78;100.00;50275.88;4889264;29;20040;-69
2022/04/16 05:21:45;;;;;;;88.82;40.67;;;;;;;-149.78;100.00;50307.16;4889244;29;20045;-69
2022/04/16 05:24:11;;;;;;;102.72;43.08;;;;;;;-149.78;100.00;50266.09;4887873;29;20041;-69
2022/04/16 05:26:39;;;;;;;90.55;40.13;;;;;;;-149.78;100.00;50281.75;4888992;29;20107;-69
2022/04/16 05:29:08;;;;;;;97.72;41.80;;;;;;;-149.78;100.00;50260.22;4888894;29;20052;-70
2022/04/16 05:31:34;;;;;;;92.18;40.75;;;;;;;-149.78;100.00;50283.69;4888301;29;20064;-69
2022/04/16 05:34:18;;;;;;;86.63;39.08;;;;;;;-149.78;100.00;50291.50;4888988;29;20048;-69
2022/04/16 05:36:46;;;;;;;91.40;40.15;;;;;;;-149.78;100.00;50256.31;4888154;29;20088;-69
2022/04/16 05:39:12;;;;;;;93.35;41.05;;;;;;;-149.78;100.00;50291.50;4887927;29;20048;-69
2022/04/16 05:41:38;;;;;;;87.10;40.55;;;;;;;-149.78;100.00;50279.78;4887984;29;20060;-69
2022/04/16 05:44:06;;;;;;;103.80;40.92;;;;;;;-149.78;100.00;50271.97;4889387;29;20048;-70
2022/04/16 05:46:33;;;;;;;89.07;38.03;;;;;;;-149.78;100.00;50287.59;4888576;29;20481;-69
2022/04/16 05:48:59;;;;;;;84.75;38.53;;;;;;;-149.78;100.00;50256.31;4888969;29;20060;-69
2022/04/16 05:51:25;;;;;;;86.50;37.08;;;;;;;-149.78;100.00;50307.16;4886903;29;20049;-69
2022/04/16 05:53:52;;;;;;;90.43;37.90;;;;;;;-149.78;100.00;50268.03;4888672;29;20039;-69
2022/04/16 05:56:18;;;;;;;75.13;34.72;;;;;;;-149.78;100.00;50271.97;4888864;29;20025;-69
2022/04/16 05:58:44;;;;;;;79.82;35.50;;;;;;;-149.78;100.00;50268.03;4888647;29;20033;-69
2022/04/16 06:01:11;;;;;;;78.53;36.17;;;;;;;-149.78;100.00;50264.13;4887278;29;20037;-69
2022/04/16 06:03:39;;;;;;;82.78;35.25;;;;;;;-149.78;100.00;50271.97;4887720;29;20488;-69
2022/04/16 06:06:09;;;;;;;73.05;34.65;;;;;;;-149.78;100.00;50318.91;4888675;29;20040;-69
2022/04/16 06:08:36;;;;;;;76.45;36.00;;;;;;;-149.78;100.00;50252.41;4888887;29;20043;-69
2022/04/16 06:11:01;;;;;;;82.32;36.45;;;;;;;-149.78;100.00;50295.44;4888415;29;20076;-69
2022/04/16 06:13:30;;;;;;;76.78;36.15;;;;;;;-149.78;100.00;50275.88;4888701;29;20044;-69
2022/04/16 06:15:56;;;;;;;79.75;37.90;;;;;;;-149.78;100.00;50275.88;4886987;29;20050;-70
2022/04/16 06:18:22;;;;;;;74.97;36.63;;;;;;;-149.78;100.00;50303.25;4886401;29;20092;-69
2022/04/16 06:20:47;;;;;;;81.50;38.60;;;;;;;-149.78;100.00;50283.69;4887739;29;21471;-69
2022/04/16 06:23:13;;;;;;;71.32;35.17;;;;;;;-149.78;100.00;50271.97;4888125;29;21086;-69
2022/04/16 06:25:39;;;;;;;76.55;37.42;;;;;;;-149.78;100.00;50273.91;4888448;29;20527;-69
2022/04/16 06:28:05;;;;;;;72.03;36.15;;;;;;;-149.78;100.00;50291.50;4887302;29;20060;-69
2022/04/16 06:30:30;;;;;;;76.85;36.17;;;;;;;-149.78;100.00;50291.50;4887453;29;20033;-70
2022/04/16 06:32:56;;;;;;;74.97;35.08;;;;;;;-149.78;100.00;50271.97;4887411;29;20536;-70
2022/04/16 06:35:22;;;;;;;77.90;36.80;;;;;;;-149.78;100.00;50279.78;4887887;29;20079;-69
2022/04/16 06:37:49;;;;;;;71.72;35.05;;;;;;;-149.78;100.00;50260.22;4887950;29;20037;-69
2022/04/16 06:40:14;;;;;;;71.82;34.58;;;;;;;-149.78;100.00;50285.66;4888167;29;20139;-69
2022/04/16 06:42:41;;;;;;;75.15;33.78;;;;;;;-149.78;100.00;50311.06;4887901;29;20033;-70
2022/04/16 06:45:08;;;;;;;77.10;36.97;;;;;;;-149.78;100.00;50264.13;4887295;29;20036;-70
2022/04/16 06:47:34;;;;;;;74.38;36.10;;;;;;;-149.78;100.00;50283.69;4887184;29;20063;-69
2022/04/16 06:50:00;;;;;;;64.65;31.48;;;;;;;-149.78;100.00;50225.03;4884500;29;20119;-70
2022/04/16 06:52:26;;;;;;;64.68;33.70;;;;;;;-149.78;100.00;50260.22;4885798;29;20043;-69
2022/04/16 06:54:52;;;;;;;70.03;33.42;;;;;;;-149.78;100.00;50271.97;4883016;29;20100;-69
2022/04/16 06:57:18;;;;;;;68.13;34.03;;;;;;;-149.78;100.00;50234.81;4866578;29;20040;-70
2022/04/16 06:59:43;;;;;;;59.97;31.52;;;;;;;-149.78;100.00;50240.66;4882316;29;20044;-71
2022/04/16 07:02:10;;;;;;;52.83;29.45;;;;;;;-149.78;100.00;50185.91;4880694;29;20112;-70
2022/04/16 07:04:37;;;;;;;57.08;29.08;;;;;;;-149.78;100.00;50168.31;4882023;29;20085;-71
2022/04/16 07:07:04;;;;;;;53.13;27.60;;;;;;;-149.78;100.00;50111.59;4883308;29;20037;-70
2022/04/16 07:09:29;;;;;;;48.38;26.70;;;;;;;-149.78;100.00;50119.41;4882527;29;21275;-70
2022/04/16 07:11:55;;;;;;;49.78;28.25;;;;;;;-149.78;100.00;50121.38;4884389;29;20051;-70
2022/04/16 07:14:21;;;;;;;42.20;24.83;;;;;;;-149.78;100.00;50082.25;4886027;29;20037;-70
2022/04/16 07:16:47;;;;;;;40.25;24.90;;;;;;;-149.78;100.00;50121.38;4885981;29;20025;-70
2022/04/16 07:19:13;;;;;;;42.83;25.67;;;;;;;-149.78;100.00;50092.03;4885834;29;20507;-71
2022/04/16 07:21:38;;;;;;;44.25;25.23;;;;;;;-149.78;100.00;50084.22;4885431;29;20044;-70
2022/04/16 07:24:04;;;;;;;38.90;24.38;;;;;;;-149.78;100.00;50041.19;4884814;29;20461;-70
2022/04/16 07:26:30;;;;;;;42.83;25.25;;;;;;;-149.78;100.00;50037.28;4884011;29;21500;-69
2022/04/16 07:28:56;;;;;;;39.92;24.95;;;;;;;-149.78;100.00;50064.66;4883579;29;20557;-70
2022/04/16 07:31:22;;;;;;;40.40;25.20;;;;;;;-149.78;100.00;50013.81;4886268;29;20127;-70
2022/04/16 07:33:48;;;;;;;38.05;24.30;;;;;;;-149.78;100.00;50041.19;4885958;29;20044;-69
2022/04/16 07:36:13;;;;;;;37.70;24.05;;;;;;;-149.78;100.00;49980.56;4886402;29;20060;-70
2022/04/16 07:38:43;;;;;;;37.92;24.48;;;;;;;-149.78;100.00;50021.63;4887883;29;20051;-72
2022/04/16 07:41:11;;;;;;;41.75;25.65;;;;;;;-149.78;100.00;50017.72;4888360;29;20041;-70
2022/04/16 07:43:38;;;;;;;37.67;22.40;;;;;;;-149.78;100.00;50006.00;4887963;29;20127;-71
2022/04/16 07:46:03;;;;;;;38.97;24.13;;;;;;;-149.78;100.00;50013.81;4885623;29;20620;-72
2022/04/16 07:48:29;;;;;;;34.63;22.63;;;;;;;-149.78;100.00;49935.59;4885805;29;20045;-71
2022/04/16 07:50:56;;;;;;;37.72;23.90;;;;;;;-149.78;100.00;49984.50;4886181;29;20041;-71
2022/04/16 07:53:21;;;;;;;32.10;21.92;;;;;;;-149.78;100.00;49988.41;4872671;29;20092;-73
2022/04/16 07:55:48;;;;;;;37.45;24.02;;;;;;;-149.78;100.00;49986.44;4884737;29;20033;-72
2022/04/16 07:58:14;;;;;;;37.70;23.92;;;;;;;-149.78;100.00;49939.50;4891836;29;20096;-71
2022/04/16 08:00:40;;;;;;;35.22;23.25;;;;;;;-149.78;100.00;50002.09;4886612;29;20185;-71
2022/04/16 08:03:06;;;;;;;37.67;21.45;;;;;;;-149.78;100.00;49978.63;4891254;29;20032;-70
2022/04/16 08:05:31;;;;;;;40.72;25.45;;;;;;;-149.78;100.00;49986.44;4888127;29;20037;-71
2022/04/16 08:07:58;;;;;;;32.33;22.42;;;;;;;-149.78;100.00;49937.56;4887174;29;20088;-70
2022/04/16 08:10:24;;;;;;;39.00;24.05;;;;;;;-149.78;100.00;50007.94;4872678;29;20037;-69
2022/04/16 08:12:50;;;;;;;36.90;23.50;;;;;;;-149.78;100.00;49998.19;4885906;29;20128;-69
2022/04/16 08:15:16;;;;;;;37.78;24.13;;;;;;;-149.78;100.00;49988.41;4883230;29;20372;-69
2022/04/16 08:17:42;;;;;;;36.22;24.33;;;;;;;-149.78;100.00;50002.09;4885721;29;20037;-73
2022/04/16 08:20:08;;;;;;;38.75;26.02;;;;;;;-149.78;100.00;50021.63;4886111;29;20512;-70
2022/04/16 08:22:38;;;;;;;39.63;24.85;;;;;;;-149.78;100.00;50054.88;4882803;29;20039;-70
2022/04/16 08:27:49;;;;;;;42.90;25.75;;;;;;;-149.78;100.00;49974.72;4885313;29;20114;-74
2022/04/16 08:30:16;;;;;;;40.60;24.58;;;;;;;-149.78;100.00;49994.25;4886318;29;20847;-73
2022/04/16 08:32:44;;;;;;;35.65;22.52;;;;;;;-149.78;100.00;49972.75;4886073;29;20040;-75
2022/04/16 08:35:11;;;;;;;35.25;23.08;;;;;;;-149.78;100.00;49947.34;4884992;29;20061;-74
2022/04/16 08:37:38;;;;;;;35.58;24.35;;;;;;;-149.78;100.00;49947.34;4886102;29;20041;-72
2022/04/16 08:40:05;;;;;;;35.33;23.73;;;;;;;-149.78;100.00;49933.66;4889074;29;20040;-72
2022/04/16 08:42:37;;;;;;;35.15;25.15;;;;;;;-149.78;100.00;49947.34;4887347;29;20028;-74
2022/04/16 08:45:04;;;;;;;36.63;23.88;;;;;;;-149.78;100.00;49931.69;4887223;29;20024;-73
2022/04/16 08:47:30;;;;;;;35.97;24.08;;;;;;;-149.78;100.00;49947.34;4889339;29;20413;-74
2022/04/16 08:49:56;;;;;;;36.60;23.95;;;;;;;-149.78;100.00;49966.88;4872484;29;20041;-72
2022/04/16 08:52:23;;;;;;;35.22;23.30;;;;;;;-149.78;100.00;49935.59;4890111;29;20028;-73
2022/04/16 08:54:49;;;;;;;35.10;23.42;;;;;;;-149.78;100.00;49990.34;4889221;29;20721;-73
2022/04/16 08:57:15;;;;;;;36.17;24.15;;;;;;;-149.78;100.00;49990.34;4885350;29;20048;-73
2022/04/16 08:59:51;;;;;;;37.42;22.50;;;;;;;-149.78;100.00;49959.06;4887434;29;20072;-71
2022/04/16 09:02:22;;;;;;;37.05;23.65;;;;;;;-149.78;99.74;49974.72;4887346;29;20616;-72
2022/04/16 09:04:49;;;;;;;34.45;21.60;;;;;;;-149.78;90.79;49947.34;4889530;29;20067;-72
2022/04/16 09:07:15;;;;;;;35.58;22.42;;;;;;;-149.78;100.00;49998.19;4889238;29;20043;-72
2022/04/16 09:09:42;;;;;;;36.08;23.80;;;;;;;-149.78;100.00;49998.19;4887870;29;20545;-71
2022/04/16 09:12:19;;;;;;;35.08;23.77;;;;;;;-149.78;100.00;49990.34;4887845;29;20044;-70
2022/04/16 09:14:46;;;;;;;34.90;22.95;;;;;;;-149.78;100.00;50025.56;4886603;29;20119;-70
2022/04/16 09:17:17;;;;;;;34.50;21.77;;;;;;;-149.78;100.00;50013.81;4886303;29;20035;-70
2022/04/16 09:19:51;;;;;;;33.78;21.42;;;;;;;-149.78;95.86;49947.34;4885554;29;20043;-72
2022/04/16 09:22:32;;;;;;;31.02;20.33;;;;;;;-149.78;78.47;49943.41;4886925;29;20044;-72
2022/04/16 09:24:58;;;;;;;33.15;20.73;;;;;;;-149.78;73.02;49925.81;4883540;29;20068;-73
2022/04/16 09:27:25;;;;;;;30.40;20.40;;;;;;;-149.78;69.71;49921.91;4883907;29;20043;-72
2022/04/16 09:29:53;;;;;;;29.92;20.33;;;;;;;-149.78;70.79;49919.94;4883256;29;21391;-71
2022/04/16 09:32:25;;;;;;;29.08;19.40;;;;;;;-149.78;63.28;49857.38;4884238;29;20083;-71
2022/04/16 09:34:56;;;;;;;33.67;20.70;;;;;;;-149.78;64.70;49880.84;4886026;29;20148;-70
2022/04/16 09:37:24;;;;;;;30.20;19.17;;;;;;;-149.78;75.82;49962.97;4885353;29;20064;-70
2022/04/16 09:39:49;;;;;;;31.10;20.33;;;;;;;-149.78;80.54;49955.16;4886917;29;20033;-70
2022/04/16 09:42:25;;;;;;;28.80;19.35;;;;;;;-149.78;81.68;49962.97;4888976;29;20043;-72
2022/04/16 09:44:51;;;;;;;35.53;18.65;;;;;;;-149.78;75.74;49947.34;4888803;29;20041;-71
2022/04/16 09:47:22;;;;;;;27.50;17.13;;;;;;;-149.78;69.78;49916.03;4889256;29;20039;-70
2022/04/16 09:49:51;;;;;;;23.90;15.77;;;;;;;-149.78;63.62;49912.13;4872100;29;20063;-72
2022/04/16 09:52:22;;;;;;;22.45;14.85;;;;;;;-149.78;63.35;49878.88;4886893;29;20029;-72
2022/04/16 09:55:07;;;;;;;21.65;14.45;;;;;;;-149.78;61.24;49865.19;4885932;29;21751;-72
2022/04/16 09:57:38;;;;;;;19.30;14.23;;;;;;;-149.78;53.21;49828.03;4882280;29;20131;-69
2022/04/16 10:00:05;;;;;;;20.20;14.20;;;;;;;-149.78;55.99;49841.72;4886301;29;20048;-70
2022/04/16 10:02:31;;;;;;;19.40;14.48;;;;;;;-149.78;57.06;49874.97;4885522;29;20382;-69
2022/04/16 10:05:00;;;;;;;18.70;13.43;;;;;;;-149.78;56.12;49869.13;4884732;29;20060;-70
2022/04/16 10:07:26;;;;;;;19.23;13.88;;;;;;;-149.78;57.00;49841.72;4885549;29;20443;-70
2022/04/16 10:09:55;;;;;;;18.85;11.82;;;;;;;-149.78;53.31;49830.00;4884646;29;20120;-72
2022/04/16 10:14:56;;;;;;;21.20;12.88;;;;;;;-149.78;61.67;49912.13;4882065;29;20498;-71
2022/04/16 10:17:42;;;;;;;14.18;11.18;;;;;;;-149.78;57.85;49904.31;4883732;29;20033;-71
2022/04/16 10:20:09;;;;;;;20.40;10.75;;;;;;;-149.78;54.87;49865.19;4883628;29;20036;-71
2022/04/16 10:22:36;;;;;;;17.33;10.40;;;;;;;-149.78;57.33;49884.75;4883815;29;20032;-70
2022/04/16 10:25:03;;;;;;;17.83;10.85;;;;;;;-149.78;57.69;49865.19;4881670;29;20689;-71
2022/04/16 10:27:31;;;;;;;14.65;10.02;;;;;;;-149.78;59.58;49919.94;4881270;29;20690;-70
2022/04/16 10:30:11;;;;;;;19.08;10.10;;;;;;;-149.78;59.50;49947.34;4882856;29;20041;-70
2022/04/16 10:32:39;;;;;;;14.55;9.52;;;;;;;-149.78;60.66;49939.50;4882562;29;20807;-69
2022/04/16 10:35:05;;;;;;;17.27;10.10;;;;;;;-149.78;59.17;49896.50;4882636;29;20183;-70
2022/04/16 10:37:38;;;;;;;16.95;9.95;;;;;;;-149.78;57.36;49874.97;4883260;29;20052;-70
2022/04/16 10:40:25;;;;;;;13.02;9.63;;;;;;;-149.78;55.26;49853.47;4882799;29;20059;-71
2022/04/16 10:42:57;;;;;;;13.73;10.35;;;;;;;-149.78;56.94;49884.75;4881968;29;20046;-70
2022/04/16 10:45:23;;;;;;;19.80;10.88;;;;;;;-149.78;59.57;49892.56;4891208;29;20045;-70
2022/04/16 10:47:50;;;;;;;18.88;10.85;;;;;;;-149.78;60.31;49908.22;4872321;29;20046;-70
2022/04/16 10:50:18;;;;;;;14.15;10.05;;;;;;;-149.78;60.14;49898.44;4885070;29;20849;-69
2022/04/16 10:52:58;;;;;;;15.45;9.07;;;;;;;-149.78;60.38;49951.25;4884354;29;20040;-70
2022/04/16 10:55:31;;;;;;;16.73;9.75;;;;;;;-149.78;63.16;49912.13;4882711;29;20037;-70
2022/04/16 10:58:03;;;;;;;14.05;9.15;;;;;;;-149.78;64.80;49957.09;4882740;29;20349;-69
2022/04/16 11:00:37;;;;;;;15.95;10.18;;;;;;;-149.78;70.41;50009.91;4884839;29;20084;-70
2022/04/16 11:03:08;;;;;;;12.88;9.13;;;;;;;-149.78;69.45;49986.44;4883756;29;20089;-69
2022/04/16 11:05:36;;;;;;;12.32;7.78;;;;;;;-149.78;67.35;49970.78;4883705;29;20045;-69
2022/04/16 11:08:02;;;;;;;12.57;7.45;;;;;;;-149.78;63.23;50002.09;4887273;29;20036;-69
2022/04/16 11:10:28;;;;;;;14.43;8.30;;;;;;;-149.78;65.34;49955.16;4884597;29;20051;-69